createdAt,value
2023-03-02T00:01:13.739Z,11.10
2023-03-02T00:03:42.684Z,11.20
2023-03-02T00:06:12.336Z,10.20
2023-03-02T00:08:41.098Z,10.37
2023-03-02T00:11:09.363Z,10.73
2023-03-02T00:13:39.112Z,9.80
2023-03-02T00:16:08.421Z,9.67
2023-03-02T00:18:36.639Z,10.43
2023-03-02T00:21:05.051Z,9.73
2023-03-02T00:23:34.716Z,10.17
2023-03-02T00:26:02.880Z,10.10
2023-03-02T00:28:30.997Z,9.63
2023-03-02T00:30:59.271Z,9.47
2023-03-02T00:33:27.753Z,9.07
2023-03-02T00:35:55.990Z,9.70
2023-03-02T00:38:24.208Z,9.20
2023-03-02T00:40:53.738Z,8.90
2023-03-02T00:43:22.916Z,9.90
2023-03-02T00:45:53.217Z,9.13
2023-03-02T00:48:21.399Z,9.20
2023-03-02T00:50:49.548Z,9.73
2023-03-02T00:53:18.181Z,9.90
2023-03-02T00:55:56.269Z,9.67
2023-03-02T00:58:24.433Z,9.67
2023-03-02T01:00:52.683Z,10.27
2023-03-02T01:03:21.102Z,10.33
2023-03-02T01:05:49.483Z,11.53
2023-03-02T01:08:17.723Z,10.33
2023-03-02T01:10:45.835Z,10.70
2023-03-02T01:13:15.379Z,10.93
2023-03-02T01:15:43.586Z,10.67
2023-03-02T01:18:12.878Z,10.73
2023-03-02T01:20:41.299Z,11.20
2023-03-02T01:23:09.594Z,11.57
2023-03-02T01:25:39.093Z,12.07
2023-03-02T01:28:07.266Z,11.37
2023-03-02T01:30:36.830Z,9.87
2023-03-02T01:33:05.105Z,9.83
2023-03-02T01:35:33.309Z,10.97
2023-03-02T01:38:01.433Z,10.33
2023-03-02T01:40:29.681Z,10.87
2023-03-02T01:43:02.429Z,9.90
2023-03-02T01:45:53.805Z,10.40
2023-03-02T01:48:28.823Z,10.37
2023-03-02T01:50:58.589Z,9.03
2023-03-02T01:53:28.596Z,9.80
2023-03-02T01:55:57.745Z,9.53
2023-03-02T01:58:26.902Z,10.37
2023-03-02T02:00:57.533Z,10.13
2023-03-02T02:03:29.943Z,9.57
2023-03-02T02:06:07.320Z,9.67
2023-03-02T02:08:35.803Z,9.33
2023-03-02T02:11:03.953Z,9.57
2023-03-02T02:13:32.118Z,9.80
2023-03-02T02:16:02.052Z,9.33
2023-03-02T02:18:30.178Z,9.93
2023-03-02T02:20:58.665Z,9.37
2023-03-02T02:23:29.952Z,9.50
2023-03-02T02:26:18.739Z,10.23
2023-03-02T02:28:57.910Z,9.53
2023-03-02T02:31:31.686Z,10.13
2023-03-02T02:34:05.657Z,9.00
2023-03-02T02:36:39.734Z,9.37
2023-03-02T02:39:12.776Z,9.63
2023-03-02T02:41:43.606Z,10.97
2023-03-02T02:44:14.587Z,12.17
2023-03-02T02:46:42.956Z,11.87
2023-03-02T02:49:22.575Z,11.00
2023-03-02T02:51:50.724Z,11.63
2023-03-02T02:54:19.853Z,11.27
2023-03-02T02:56:51.312Z,11.13
2023-03-02T02:59:23.058Z,11.23
2023-03-02T03:01:52.144Z,12.70
2023-03-02T03:04:21.931Z,12.23
2023-03-02T03:06:55.386Z,13.17
2023-03-02T03:09:24.303Z,13.90
2023-03-02T03:11:55.910Z,12.93
2023-03-02T03:14:29.154Z,13.27
2023-03-02T03:16:57.408Z,12.37
2023-03-02T03:19:28.270Z,11.73
2023-03-02T03:21:58.808Z,11.47
2023-03-02T03:24:28.090Z,10.83
2023-03-02T03:26:59.195Z,11.50
2023-03-02T03:29:28.902Z,10.97
2023-03-02T03:31:58.944Z,11.47
2023-03-02T03:34:28.644Z,10.77
2023-03-02T03:37:01.742Z,11.37
2023-03-02T03:39:30.754Z,11.90
2023-03-02T03:42:00.260Z,11.63
2023-03-02T03:44:28.647Z,11.30
2023-03-02T03:46:56.938Z,11.30
2023-03-02T03:49:25.149Z,11.17
2023-03-02T03:51:53.714Z,11.83
2023-03-02T03:54:22.417Z,12.60
2023-03-02T03:56:51.474Z,12.10
2023-03-02T03:59:24.683Z,11.73
2023-03-02T04:01:55.687Z,10.80
2023-03-02T04:04:26.863Z,10.63
2023-03-02T04:06:55.558Z,10.77
2023-03-02T04:09:24.516Z,11.60
2023-03-02T04:11:54.729Z,11.73
2023-03-02T04:14:25.581Z,10.90
2023-03-02T04:16:53.994Z,11.20
2023-03-02T04:19:22.872Z,10.17
2023-03-02T04:21:53.032Z,11.43
2023-03-02T04:24:23.270Z,10.20
2023-03-02T04:26:51.796Z,9.80
2023-03-02T04:29:20.162Z,10.83
2023-03-02T04:31:49.650Z,10.03
2023-03-02T04:34:17.853Z,10.33
2023-03-02T04:36:46.649Z,9.10
2023-03-02T04:39:16.173Z,9.20
2023-03-02T04:41:44.287Z,10.53
2023-03-02T04:44:13.110Z,9.40
2023-03-02T04:46:44.547Z,8.97
2023-03-02T04:49:15.386Z,10.40
2023-03-02T04:51:46.077Z,10.37
2023-03-02T04:54:17.513Z,10.47
2023-03-02T04:56:48.520Z,10.93
2023-03-02T04:59:16.985Z,9.33
2023-03-02T05:01:45.836Z,10.67
2023-03-02T05:04:15.892Z,10.70
2023-03-02T05:06:44.182Z,11.43
2023-03-02T05:09:12.744Z,11.07
2023-03-02T05:11:41.276Z,10.93
2023-03-02T05:14:12.570Z,10.87
2023-03-02T05:16:42.196Z,10.90
2023-03-02T05:19:12.522Z,10.17
2023-03-02T05:21:42.436Z,10.20
2023-03-02T05:24:10.921Z,10.00
2023-03-02T05:26:39.298Z,10.03
2023-03-02T05:29:07.587Z,9.97
2023-03-02T05:31:39.043Z,10.73
2023-03-02T05:34:09.936Z,10.27
2023-03-02T05:36:38.597Z,10.77
2023-03-02T05:39:09.073Z,11.47
2023-03-02T05:41:37.936Z,12.77
2023-03-02T05:44:09.421Z,12.70
2023-03-02T05:46:37.725Z,13.23
2023-03-02T05:49:06.288Z,13.13
2023-03-02T05:51:34.541Z,14.13
2023-03-02T05:54:03.133Z,12.67
2023-03-02T05:56:33.137Z,11.70
2023-03-02T05:59:01.830Z,13.10
2023-03-02T06:01:30.057Z,11.97
2023-03-02T06:03:58.209Z,11.30
2023-03-02T06:06:26.478Z,11.50
2023-03-02T06:08:54.786Z,11.77
2023-03-02T06:11:22.991Z,10.97
2023-03-02T06:13:52.549Z,11.70
2023-03-02T06:16:20.773Z,11.03
2023-03-02T06:18:49.133Z,10.43
2023-03-02T06:21:17.311Z,11.73
2023-03-02T06:23:45.560Z,11.70
2023-03-02T06:26:14.166Z,11.73
2023-03-02T06:28:52.225Z,10.50
2023-03-02T06:31:23.337Z,11.17
2023-03-02T06:33:51.933Z,11.53
2023-03-02T06:36:20.437Z,11.07
2023-03-02T06:38:48.664Z,11.47
2023-03-02T06:41:17.378Z,11.20
2023-03-02T06:43:45.628Z,10.93
2023-03-02T06:46:14.371Z,10.40
2023-03-02T06:48:44.027Z,12.07
2023-03-02T06:51:12.775Z,12.50
2023-03-02T06:53:41.047Z,12.37
2023-03-02T06:56:09.434Z,12.20
2023-03-02T06:58:38.269Z,13.67
2023-03-02T07:01:07.888Z,12.33
2023-03-02T07:03:37.014Z,13.83
2023-03-02T07:06:07.121Z,13.90
2023-03-02T07:08:36.071Z,13.43
2023-03-02T07:11:07.566Z,14.53
2023-03-02T07:13:38.032Z,13.17
2023-03-02T07:16:10.460Z,13.63
2023-03-02T07:18:39.057Z,13.73
2023-03-02T07:21:08.855Z,14.03
2023-03-02T07:23:37.238Z,13.33
2023-03-02T07:26:08.501Z,14.43
2023-03-02T07:28:39.538Z,14.93
2023-03-02T07:31:07.928Z,14.30
2023-03-02T07:33:36.347Z,13.20
2023-03-02T07:36:04.676Z,13.23
2023-03-02T07:38:34.550Z,12.43
2023-03-02T07:41:06.915Z,12.77
2023-03-02T07:43:36.664Z,11.83
2023-03-02T07:46:05.436Z,16.40
2023-03-02T07:48:34.343Z,18.67
2023-03-02T07:51:03.451Z,13.70
2023-03-02T07:53:33.173Z,14.40
2023-03-02T07:56:02.338Z,14.07
2023-03-02T07:58:30.569Z,14.43
2023-03-02T08:00:58.741Z,13.43
2023-03-02T08:03:26.942Z,14.80
2023-03-02T08:05:55.180Z,13.90
2023-03-02T08:08:23.294Z,14.27
2023-03-02T08:10:52.883Z,13.20
2023-03-02T08:13:21.129Z,14.43
2023-03-02T08:15:49.214Z,14.57
2023-03-02T08:18:17.331Z,13.73
2023-03-02T08:20:45.549Z,15.23
2023-03-02T08:23:13.726Z,13.97
2023-03-02T08:25:43.680Z,14.20
2023-03-02T08:28:13.344Z,14.37
2023-03-02T08:30:41.615Z,20.00
2023-03-02T08:33:09.862Z,19.10
2023-03-02T08:35:38.046Z,14.97
2023-03-02T08:38:06.263Z,15.27
2023-03-02T08:40:34.963Z,14.03
2023-03-02T08:43:03.075Z,14.73
2023-03-02T08:45:32.715Z,13.00
2023-03-02T08:48:00.904Z,14.13
2023-03-02T08:50:29.100Z,13.97
2023-03-02T08:52:57.276Z,13.77
2023-03-02T08:55:25.639Z,13.73
2023-03-02T08:57:54.381Z,15.37
2023-03-02T09:00:22.999Z,15.00
2023-03-02T09:02:52.557Z,15.77
2023-03-02T09:05:20.694Z,15.33
2023-03-02T09:07:48.831Z,14.73
2023-03-02T09:10:17.011Z,15.30
2023-03-02T09:12:45.231Z,16.27
2023-03-02T09:15:13.445Z,73.07
2023-03-02T09:17:41.646Z,24.80
2023-03-02T09:20:12.829Z,16.17
2023-03-02T09:22:42.633Z,15.30
2023-03-02T09:25:11.006Z,15.43
2023-03-02T09:27:39.162Z,15.80
2023-03-02T09:30:08.552Z,15.57
2023-03-02T09:32:37.014Z,15.70
2023-03-02T09:35:05.869Z,14.23
2023-03-02T09:37:38.753Z,14.97
2023-03-02T09:40:14.124Z,15.47
2023-03-02T09:43:02.700Z,14.10
2023-03-02T09:45:52.344Z,14.83
2023-03-02T09:48:32.823Z,14.67
2023-03-02T09:51:16.635Z,14.80
2023-03-02T09:53:52.673Z,15.20
2023-03-02T09:56:22.236Z,14.67
2023-03-02T09:58:57.126Z,15.60
2023-03-02T10:01:35.789Z,15.77
2023-03-02T10:04:14.544Z,15.57
2023-03-02T10:06:42.878Z,27.23
2023-03-02T10:09:12.756Z,18.57
2023-03-02T10:11:54.889Z,18.00
2023-03-02T10:14:27.215Z,14.03
2023-03-02T10:17:11.012Z,15.37
2023-03-02T10:19:45.616Z,14.73
2023-03-02T10:22:20.939Z,15.87
2023-03-02T10:24:58.488Z,15.33
2023-03-02T10:27:29.395Z,15.37
2023-03-02T10:30:02.456Z,14.87
2023-03-02T10:32:33.970Z,15.33
2023-03-02T10:35:11.829Z,14.70
2023-03-02T10:37:40.271Z,15.47
2023-03-02T10:40:22.804Z,15.70
2023-03-02T10:42:51.404Z,14.53
2023-03-02T10:45:25.644Z,14.17
2023-03-02T10:48:02.172Z,14.40
2023-03-02T10:50:31.373Z,14.83
2023-03-02T10:53:02.013Z,14.40
2023-03-02T10:55:34.529Z,14.63
2023-03-02T10:58:05.543Z,14.23
2023-03-02T11:00:35.532Z,14.60
2023-03-02T11:03:05.721Z,14.63
2023-03-02T11:05:36.216Z,14.93
2023-03-02T11:08:06.552Z,13.30
2023-03-02T11:10:38.337Z,13.50
2023-03-02T11:13:19.674Z,13.77
2023-03-02T11:15:49.556Z,15.00
2023-03-02T11:18:29.062Z,14.07
2023-03-02T11:21:02.246Z,12.77
2023-03-02T11:23:42.220Z,13.80
2023-03-02T11:26:19.726Z,13.80
2023-03-02T11:28:52.696Z,13.73
2023-03-02T11:31:30.091Z,13.03
2023-03-02T11:34:16.749Z,12.87
2023-03-02T11:36:55.506Z,14.03
2023-03-02T11:39:30.171Z,14.33
2023-03-02T11:41:59.807Z,13.17
2023-03-02T11:44:29.102Z,12.57
2023-03-02T11:47:01.917Z,12.70
2023-03-02T11:49:39.322Z,11.83
2023-03-02T11:52:16.923Z,12.27
2023-03-02T11:54:47.668Z,11.93
2023-03-02T11:57:24.194Z,11.93
2023-03-02T11:59:53.798Z,17.23
2023-03-02T12:02:22.350Z,15.67
2023-03-02T12:04:51.022Z,19.13
2023-03-02T12:07:24.055Z,12.10
2023-03-02T12:10:01.492Z,12.93
2023-03-02T12:12:42.035Z,13.50
2023-03-02T12:15:41.347Z,13.40
2023-03-02T12:18:45.072Z,11.60
2023-03-02T12:21:16.573Z,11.77
2023-03-02T12:24:06.340Z,12.10
2023-03-02T12:26:37.079Z,11.73
2023-03-02T12:29:23.742Z,11.57
2023-03-02T12:31:53.493Z,11.10
2023-03-02T12:34:36.088Z,10.77
2023-03-02T12:37:09.291Z,12.83
2023-03-02T12:40:20.548Z,13.83
2023-03-02T12:43:10.465Z,12.90
2023-03-02T12:45:54.010Z,13.60
2023-03-02T12:48:27.951Z,12.43
2023-03-02T12:51:01.088Z,11.80
2023-03-02T12:53:29.534Z,12.30
2023-03-02T12:55:58.029Z,12.40
2023-03-02T12:58:28.760Z,12.93
2023-03-02T13:01:00.706Z,11.43
2023-03-02T13:03:31.276Z,10.83
2023-03-02T13:06:04.046Z,11.27
2023-03-02T13:08:33.164Z,11.33
2023-03-02T13:11:03.448Z,11.60
2023-03-02T13:13:38.049Z,11.47
2023-03-02T13:16:19.432Z,10.50
2023-03-02T13:18:49.904Z,14.87
2023-03-02T13:21:20.003Z,11.90
2023-03-02T13:23:51.724Z,11.57
2023-03-02T13:26:27.150Z,12.60
2023-03-02T13:29:03.110Z,12.37
2023-03-02T13:31:33.363Z,12.07
2023-03-02T13:34:02.164Z,12.50
2023-03-02T13:36:35.414Z,12.73
2023-03-02T13:39:07.047Z,13.03
2023-03-02T13:41:37.623Z,14.47
2023-03-02T13:44:19.751Z,14.43
2023-03-02T13:46:49.776Z,13.97
2023-03-02T13:49:28.288Z,14.67
2023-03-02T13:52:01.874Z,15.63
2023-03-02T13:54:32.102Z,16.37
2023-03-02T13:57:02.318Z,20.53
2023-03-02T13:59:32.526Z,15.53
2023-03-02T14:02:02.153Z,14.23
2023-03-02T14:04:30.426Z,13.80
2023-03-02T14:06:58.746Z,13.73
2023-03-02T14:09:27.815Z,13.60
2023-03-02T14:11:57.855Z,13.50
2023-03-02T14:14:29.030Z,12.80
2023-03-02T14:16:58.030Z,12.60
2023-03-02T14:19:27.641Z,13.10
2023-03-02T14:21:55.819Z,12.67
2023-03-02T14:24:24.076Z,13.10
2023-03-02T14:26:52.260Z,13.07
2023-03-02T14:29:26.149Z,12.10
2023-03-02T14:31:55.103Z,12.03
2023-03-02T14:34:23.672Z,12.40
2023-03-02T14:36:55.549Z,12.77
2023-03-02T14:39:35.316Z,16.63
2023-03-02T14:42:04.473Z,14.17
2023-03-02T14:44:32.659Z,12.97
2023-03-02T14:47:00.867Z,12.13
2023-03-02T14:49:29.081Z,12.00
2023-03-02T14:52:02.665Z,12.97
2023-03-02T14:54:37.985Z,11.70
2023-03-02T14:57:08.007Z,12.23
2023-03-02T14:59:36.095Z,11.30
2023-03-02T15:02:15.914Z,11.90
2023-03-02T15:04:56.122Z,11.23
2023-03-02T15:07:27.109Z,12.13
2023-03-02T15:09:56.058Z,12.23
2023-03-02T15:12:24.250Z,11.60
2023-03-02T15:14:52.691Z,11.93
2023-03-02T15:17:20.978Z,13.10
2023-03-02T15:19:49.517Z,12.63
2023-03-02T15:22:17.715Z,13.70
2023-03-02T15:24:47.357Z,13.50
2023-03-02T15:27:15.646Z,12.77
2023-03-02T15:29:45.945Z,13.40
2023-03-02T15:32:14.779Z,13.77
2023-03-02T15:34:43.144Z,10.77
2023-03-02T15:37:11.967Z,11.40
2023-03-02T15:39:42.656Z,9.97
2023-03-02T15:42:13.892Z,10.47
2023-03-02T15:44:42.308Z,9.43
2023-03-02T15:47:12.633Z,9.60
2023-03-02T15:49:41.066Z,10.87
2023-03-02T15:52:09.421Z,10.17
2023-03-02T15:54:37.635Z,10.60
2023-03-02T15:57:05.962Z,9.80
2023-03-02T15:59:35.957Z,10.93
2023-03-02T16:02:04.807Z,10.77
2023-03-02T16:04:34.627Z,11.07
2023-03-02T16:07:02.926Z,10.23
2023-03-02T16:09:31.556Z,11.43
2023-03-02T16:12:00.198Z,11.33
2023-03-02T16:14:28.334Z,10.93
2023-03-02T16:16:58.059Z,10.00
2023-03-02T16:19:26.953Z,10.80
2023-03-02T16:21:55.146Z,11.20
2023-03-02T16:24:23.302Z,12.40
2023-03-02T16:26:54.281Z,13.30
2023-03-02T16:29:22.562Z,12.00
2023-03-02T16:31:50.943Z,12.10
2023-03-02T16:34:20.583Z,11.57
2023-03-02T16:36:48.773Z,12.80
2023-03-02T16:39:17.327Z,11.30
2023-03-02T16:41:46.220Z,12.53
2023-03-02T16:44:14.628Z,11.30
2023-03-02T16:46:43.616Z,11.07
2023-03-02T16:49:12.484Z,10.90
2023-03-02T16:51:43.263Z,10.93
2023-03-02T16:54:12.302Z,11.30
2023-03-02T16:56:45.142Z,11.27
2023-03-02T16:59:13.437Z,11.20
2023-03-02T17:01:41.899Z,10.90
2023-03-02T17:04:10.298Z,11.07
2023-03-02T17:06:40.092Z,12.47
2023-03-02T17:09:13.418Z,11.20
2023-03-02T17:11:41.863Z,11.37
2023-03-02T17:14:10.027Z,12.57
2023-03-02T17:16:41.431Z,12.53
2023-03-02T17:19:09.871Z,12.87
2023-03-02T17:21:38.143Z,13.07
2023-03-02T17:24:06.639Z,12.43
2023-03-02T17:26:36.222Z,13.20
2023-03-02T17:29:04.585Z,14.23
2023-03-02T17:31:32.879Z,14.97
2023-03-02T17:34:01.181Z,19.93
2023-03-02T17:36:29.453Z,29.87
2023-03-02T17:38:57.619Z,26.37
2023-03-02T17:41:25.743Z,21.97
2023-03-02T17:43:55.402Z,19.73
2023-03-02T17:46:25.560Z,18.57
2023-03-02T17:48:55.765Z,17.73
2023-03-02T17:51:24.430Z,18.23
2023-03-02T17:53:54.011Z,22.10
2023-03-02T17:56:25.000Z,21.63
2023-03-02T17:58:55.703Z,21.53
2023-03-02T18:01:23.987Z,22.63
2023-03-02T18:03:52.539Z,22.40
2023-03-02T18:06:20.835Z,23.80
2023-03-02T18:08:50.085Z,23.83
2023-03-02T18:11:19.282Z,23.47
2023-03-02T18:13:47.508Z,21.10
2023-03-02T18:16:17.198Z,21.07
2023-03-02T18:18:45.480Z,19.87
2023-03-02T18:21:13.679Z,18.63
2023-03-02T18:23:42.205Z,19.63
2023-03-02T18:26:11.273Z,21.33
2023-03-02T18:28:40.263Z,18.27
2023-03-02T18:31:09.319Z,17.43
2023-03-02T18:33:39.023Z,15.07
2023-03-02T18:36:07.868Z,13.47
2023-03-02T18:38:37.525Z,16.17
2023-03-02T18:41:07.794Z,16.37
2023-03-02T18:43:41.648Z,15.90
2023-03-02T18:46:19.680Z,15.33
2023-03-02T18:48:50.222Z,15.20
2023-03-02T18:51:18.811Z,15.67
2023-03-02T18:53:47.580Z,14.93
2023-03-02T18:56:16.610Z,15.53
2023-03-02T18:58:45.764Z,15.20
2023-03-02T19:01:14.179Z,15.57
2023-03-02T19:03:45.668Z,15.03
2023-03-02T19:06:16.516Z,14.63
2023-03-02T19:08:44.950Z,12.93
2023-03-02T19:11:14.036Z,14.47
2023-03-02T19:13:42.230Z,14.70
2023-03-02T19:16:10.758Z,14.63
2023-03-02T19:18:39.061Z,14.33
2023-03-02T19:21:08.003Z,15.17
2023-03-02T19:23:38.393Z,15.60
2023-03-02T19:26:06.783Z,16.97
2023-03-02T19:28:36.137Z,21.13
2023-03-02T19:31:06.558Z,20.50
2023-03-02T19:33:35.034Z,22.80
2023-03-02T19:36:03.140Z,23.33
2023-03-02T19:38:31.337Z,23.73
2023-03-02T19:41:02.088Z,23.83
2023-03-02T19:43:30.556Z,22.43
2023-03-02T19:45:58.874Z,19.97
2023-03-02T19:48:27.174Z,19.87
2023-03-02T19:50:55.338Z,18.90
2023-03-02T19:53:23.742Z,18.10
2023-03-02T19:55:52.757Z,18.43
2023-03-02T19:58:23.704Z,19.70
2023-03-02T20:00:51.980Z,18.77
2023-03-02T20:03:20.242Z,19.57
2023-03-02T20:05:48.473Z,20.33
2023-03-02T20:08:17.351Z,18.80
2023-03-02T20:10:49.385Z,16.37
2023-03-02T20:13:18.137Z,15.73
2023-03-02T20:15:49.030Z,17.07
2023-03-02T20:18:19.869Z,17.90
2023-03-02T20:20:48.659Z,16.47
2023-03-02T20:23:17.675Z,15.93
2023-03-02T20:25:48.352Z,15.60
2023-03-02T20:28:19.307Z,16.53
2023-03-02T20:30:52.897Z,15.20
2023-03-02T20:33:23.331Z,16.33
2023-03-02T20:35:52.847Z,18.70
2023-03-02T20:38:29.310Z,17.87
2023-03-02T20:40:57.750Z,14.93
2023-03-02T20:43:26.357Z,15.53
2023-03-02T20:45:58.210Z,16.17
2023-03-02T20:48:26.459Z,23.10
2023-03-02T20:50:55.019Z,17.47
2023-03-02T20:53:23.621Z,17.13
2023-03-02T20:55:51.800Z,15.23
2023-03-02T20:58:19.988Z,16.03
2023-03-02T21:00:48.671Z,15.57
2023-03-02T21:03:18.207Z,15.50
2023-03-02T21:05:47.094Z,15.87
2023-03-02T21:08:15.899Z,15.87
2023-03-02T21:10:45.165Z,16.90
2023-03-02T21:13:13.607Z,16.10
2023-03-02T21:15:42.184Z,16.87
2023-03-02T21:18:10.483Z,16.00
2023-03-02T21:20:40.502Z,15.17
2023-03-02T21:23:08.861Z,14.97
2023-03-02T21:25:37.404Z,14.07
2023-03-02T21:28:05.686Z,15.43
2023-03-02T21:30:35.723Z,13.67
2023-03-02T21:33:04.634Z,13.43
2023-03-02T21:35:32.880Z,15.53
2023-03-02T21:38:05.168Z,16.20
2023-03-02T21:40:35.980Z,16.27
2023-03-02T21:43:05.466Z,16.33
2023-03-02T21:45:34.094Z,15.60
2023-03-02T21:48:02.324Z,16.43
2023-03-02T21:50:33.162Z,15.87
2023-03-02T21:53:03.476Z,15.70
2023-03-02T21:55:32.318Z,17.63
2023-03-02T21:58:00.865Z,17.73
2023-03-02T22:00:32.725Z,17.90
2023-03-02T22:03:01.361Z,19.00
2023-03-02T22:05:29.707Z,17.73
2023-03-02T22:07:58.503Z,17.97
2023-03-02T22:10:31.660Z,16.17
2023-03-02T22:13:15.452Z,15.67
2023-03-02T22:15:43.644Z,15.80
2023-03-02T22:18:13.475Z,16.80
2023-03-02T22:20:43.886Z,16.27
2023-03-02T22:23:13.816Z,14.00
2023-03-02T22:25:44.643Z,14.90
2023-03-02T22:28:17.981Z,16.80
2023-03-02T22:30:46.291Z,17.13
2023-03-02T22:33:19.880Z,17.20
2023-03-02T22:35:48.818Z,17.07
2023-03-02T22:38:25.043Z,18.00
2023-03-02T22:40:56.341Z,16.73
2023-03-02T22:43:29.258Z,16.53
2023-03-02T22:46:02.632Z,17.53
2023-03-02T22:48:31.686Z,18.37
2023-03-02T22:50:59.831Z,17.63
2023-03-02T22:53:30.117Z,17.80
2023-03-02T22:56:01.440Z,19.67
2023-03-02T22:58:33.042Z,17.57
2023-03-02T23:01:02.880Z,15.97
2023-03-02T23:03:39.930Z,15.83
2023-03-02T23:06:29.569Z,18.13
2023-03-02T23:08:59.997Z,17.13
2023-03-02T23:11:32.532Z,17.43
2023-03-02T23:14:03.212Z,16.97
2023-03-02T23:16:37.085Z,17.77
2023-03-02T23:19:05.949Z,18.17
2023-03-02T23:21:38.817Z,19.73
2023-03-02T23:24:09.242Z,20.17
2023-03-02T23:26:38.866Z,20.57
2023-03-02T23:29:07.803Z,25.53
2023-03-02T23:31:35.991Z,24.83
2023-03-02T23:34:04.176Z,26.50
2023-03-02T23:36:32.731Z,18.97
2023-03-02T23:39:00.950Z,17.47
2023-03-02T23:41:29.392Z,17.37
2023-03-02T23:43:59.193Z,27.13
2023-03-02T23:46:27.602Z,28.13
2023-03-02T23:48:56.617Z,34.37
2023-03-02T23:51:25.511Z,29.97
2023-03-02T23:53:53.929Z,26.60
2023-03-02T23:56:22.545Z,22.40
2023-03-02T23:58:50.948Z,19.87
